createdAt,value
2018-11-20T00:00:52.038Z,1019.87
2018-11-20T00:01:52.006Z,1019.93
2018-11-20T00:02:51.973Z,1019.88
2018-11-20T00:03:51.942Z,1019.87
2018-11-20T00:04:51.910Z,1019.85
2018-11-20T00:05:51.878Z,1019.79
2018-11-20T00:06:51.844Z,1019.80
2018-11-20T00:07:51.814Z,1019.78
2018-11-20T00:08:51.933Z,1019.68
2018-11-20T00:09:51.752Z,1019.80
2018-11-20T00:10:51.718Z,1019.73
2018-11-20T00:11:51.686Z,1019.80
2018-11-20T00:12:51.655Z,1019.78
2018-11-20T00:13:51.624Z,1019.73
2018-11-20T00:14:51.590Z,1019.74
2018-11-20T00:15:51.561Z,1019.73
2018-11-20T00:16:51.530Z,1019.68
2018-11-20T00:17:51.496Z,1019.72
2018-11-20T00:18:51.464Z,1019.67
2018-11-20T00:19:51.432Z,1019.66
2018-11-20T00:20:51.401Z,1019.66
2018-11-20T00:21:51.369Z,1019.69
2018-11-20T00:22:51.337Z,1019.67
2018-11-20T00:23:51.312Z,1019.62
2018-11-20T00:24:51.273Z,1019.66
2018-11-20T00:25:51.242Z,1019.60
2018-11-20T00:26:51.211Z,1019.56
2018-11-20T00:27:51.182Z,1019.64
2018-11-20T00:28:51.150Z,1019.58
2018-11-20T00:29:51.113Z,1019.59
2018-11-20T00:30:51.082Z,1019.57
2018-11-20T00:31:51.052Z,1019.57
2018-11-20T00:32:51.019Z,1019.60
2018-11-20T00:33:50.988Z,1019.51
2018-11-20T00:34:50.955Z,1019.60
2018-11-20T00:35:50.923Z,1019.37
2018-11-20T00:36:50.895Z,1019.55
2018-11-20T00:37:50.860Z,1019.53
2018-11-20T00:38:50.833Z,1019.43
2018-11-20T00:39:50.796Z,1019.52
2018-11-20T00:40:50.765Z,1019.52
2018-11-20T00:41:50.733Z,1019.51
2018-11-20T00:42:50.701Z,1019.55
2018-11-20T00:43:50.669Z,1019.50
2018-11-20T00:44:50.638Z,1019.43
2018-11-20T00:45:50.606Z,1019.45
2018-11-20T00:46:50.578Z,1019.49
2018-11-20T00:47:50.543Z,1019.49
2018-11-20T00:48:50.519Z,1019.40
2018-11-20T00:49:50.641Z,1019.44
2018-11-20T00:50:50.446Z,1019.44
2018-11-20T00:51:50.417Z,1019.45
2018-11-20T00:52:50.384Z,1019.46
2018-11-20T00:53:50.352Z,1019.40
2018-11-20T00:54:50.319Z,1019.42
2018-11-20T00:55:50.293Z,1019.34
2018-11-20T00:56:50.255Z,1019.19
2018-11-20T00:57:50.228Z,1019.35
2018-11-20T00:58:50.194Z,1019.43
2018-11-20T00:59:50.162Z,1019.26
2018-11-20T01:00:50.132Z,1019.36
2018-11-20T01:01:50.098Z,1019.32
2018-11-20T01:02:50.067Z,1019.26
2018-11-20T01:03:50.034Z,1019.27
2018-11-20T01:04:50.005Z,1019.19
2018-11-20T01:05:49.972Z,1019.25
2018-11-20T01:06:49.939Z,1019.20
2018-11-20T01:07:49.907Z,1019.24
2018-11-20T01:08:49.876Z,1019.19
2018-11-20T01:09:49.860Z,1019.17
2018-11-20T01:10:49.848Z,1019.28
2018-11-20T01:11:49.781Z,1019.19
2018-11-20T01:12:49.751Z,1019.23
2018-11-20T01:13:49.726Z,1019.14
2018-11-20T01:14:49.685Z,1019.13
2018-11-20T01:15:49.653Z,1019.08
2018-11-20T01:16:49.622Z,1019.12
2018-11-20T01:17:49.590Z,1019.09
2018-11-20T01:18:49.557Z,1019.14
2018-11-20T01:19:49.527Z,1019.10
2018-11-20T01:20:49.495Z,1019.14
2018-11-20T01:21:49.463Z,1019.09
2018-11-20T01:22:49.431Z,1019.04
2018-11-20T01:23:49.398Z,1019.01
2018-11-20T01:24:49.368Z,1018.90
2018-11-20T01:25:49.336Z,1018.94
2018-11-20T01:26:49.303Z,1018.88
2018-11-20T01:27:49.272Z,1018.98
2018-11-20T01:28:49.243Z,1018.95
2018-11-20T01:29:49.209Z,1018.96
2018-11-20T01:30:49.178Z,1018.99
2018-11-20T01:31:49.148Z,1018.97
2018-11-20T01:32:49.114Z,1018.95
2018-11-20T01:33:49.082Z,1018.93
2018-11-20T01:34:49.049Z,1018.99
2018-11-20T01:35:49.018Z,1018.96
2018-11-20T01:36:48.987Z,1019.00
2018-11-20T01:37:48.955Z,1018.93
2018-11-20T01:38:48.938Z,1018.89
2018-11-20T01:39:48.891Z,1018.87
2018-11-20T01:40:48.873Z,1018.84
2018-11-20T01:41:48.828Z,1018.87
2018-11-20T01:42:48.799Z,1018.88
2018-11-20T01:43:48.763Z,1018.83
2018-11-20T01:44:48.739Z,1018.84
2018-11-20T01:45:48.701Z,1018.83
2018-11-20T01:46:48.669Z,1018.76
2018-11-20T01:47:48.637Z,1018.77
2018-11-20T01:48:48.605Z,1018.79
2018-11-20T01:49:48.577Z,1018.73
2018-11-20T01:50:48.542Z,1018.72
2018-11-20T01:51:48.513Z,1018.86
2018-11-20T01:52:48.479Z,1018.77
2018-11-20T01:53:48.448Z,1018.77
2018-11-20T01:54:48.415Z,1018.82
2018-11-20T01:55:48.387Z,1018.79
2018-11-20T01:56:48.352Z,1018.77
2018-11-20T01:57:48.325Z,1018.79
2018-11-20T01:58:48.288Z,1018.81
2018-11-20T01:59:48.256Z,1018.82
2018-11-20T02:00:48.225Z,1018.80
2018-11-20T02:01:48.198Z,1018.80
2018-11-20T02:02:48.160Z,1018.71
2018-11-20T02:03:48.132Z,1018.74
2018-11-20T02:04:48.102Z,1018.76
2018-11-20T02:05:48.071Z,1018.76
2018-11-20T02:06:48.035Z,1018.77
2018-11-20T02:07:48.004Z,1018.81
2018-11-20T02:08:47.973Z,1018.76
2018-11-20T02:09:47.941Z,1018.76
2018-11-20T02:10:47.916Z,1018.75
2018-11-20T02:11:47.879Z,1018.74
2018-11-20T02:12:47.844Z,1018.74
2018-11-20T02:13:47.816Z,1018.78
2018-11-20T02:14:47.784Z,1018.73
2018-11-20T02:15:47.751Z,1018.84
2018-11-20T02:16:47.717Z,1018.70
2018-11-20T02:17:47.692Z,1018.73
2018-11-20T02:18:47.655Z,1018.73
2018-11-20T02:19:47.622Z,1018.73
2018-11-20T02:20:47.608Z,1018.38
2018-11-20T02:21:47.563Z,1018.69
2018-11-20T02:22:47.527Z,1018.78
2018-11-20T02:23:47.494Z,1018.65
2018-11-20T02:24:47.465Z,1018.70
2018-11-20T02:25:47.435Z,1018.73
2018-11-20T02:26:47.402Z,1018.54
2018-11-20T02:27:47.372Z,1018.65
2018-11-20T02:28:47.337Z,1018.67
2018-11-20T02:29:47.305Z,1018.67
2018-11-20T02:30:47.273Z,1018.64
2018-11-20T02:31:47.243Z,1018.58
2018-11-20T02:32:47.212Z,1018.60
2018-11-20T02:33:47.176Z,1018.45
2018-11-20T02:34:47.148Z,1018.54
2018-11-20T02:35:47.114Z,1018.61
2018-11-20T02:36:47.091Z,1018.52
2018-11-20T02:37:47.051Z,1018.58
2018-11-20T02:38:47.019Z,1018.50
2018-11-20T02:39:46.987Z,1018.46
2018-11-20T02:40:46.959Z,1018.44
2018-11-20T02:41:46.962Z,1018.44
2018-11-20T02:42:46.892Z,1018.50
2018-11-20T02:43:46.863Z,1018.49
2018-11-20T02:44:46.831Z,1018.39
2018-11-20T02:45:46.818Z,1018.36
2018-11-20T02:46:46.767Z,1018.43
2018-11-20T02:47:46.734Z,1018.33
2018-11-20T02:48:46.702Z,1018.30
2018-11-20T02:49:46.672Z,1018.31
2018-11-20T02:50:46.638Z,1018.25
2018-11-20T02:51:46.613Z,1018.07
2018-11-20T02:52:46.576Z,1018.11
2018-11-20T02:53:46.549Z,1018.13
2018-11-20T02:54:46.514Z,1018.09
2018-11-20T02:55:46.481Z,1018.17
2018-11-20T02:56:46.447Z,1018.13
2018-11-20T02:57:46.420Z,1018.20
2018-11-20T02:58:46.386Z,1018.21
2018-11-20T02:59:46.354Z,1018.24
2018-11-20T03:00:46.323Z,1018.20
2018-11-20T03:01:46.293Z,1018.13
2018-11-20T03:02:46.256Z,1018.11
2018-11-20T03:03:46.333Z,1018.11
2018-11-20T03:04:46.192Z,1018.09
2018-11-20T03:05:46.165Z,1018.07
2018-11-20T03:06:46.131Z,1018.06
2018-11-20T03:07:46.096Z,1018.08
2018-11-20T03:08:46.065Z,1018.02
2018-11-20T03:09:46.033Z,1017.95
2018-11-20T03:10:45.999Z,1018.03
2018-11-20T03:11:45.969Z,1017.89
2018-11-20T03:12:45.939Z,1017.94
2018-11-20T03:13:45.905Z,1017.95
2018-11-20T03:14:45.872Z,1018.01
2018-11-20T03:15:45.841Z,1017.83
2018-11-20T03:16:45.809Z,1017.99
2018-11-20T03:17:45.776Z,1017.94
2018-11-20T03:18:45.744Z,1017.91
2018-11-20T03:19:45.712Z,1017.91
2018-11-20T03:20:45.679Z,1017.97
2018-11-20T03:21:45.649Z,1017.94
2018-11-20T03:22:45.616Z,1017.85
2018-11-20T03:23:45.586Z,1017.91
2018-11-20T03:24:45.552Z,1017.89
2018-11-20T03:25:45.519Z,1017.85
2018-11-20T03:26:45.490Z,1017.85
2018-11-20T03:27:45.457Z,1017.90
2018-11-20T03:28:45.422Z,1017.90
2018-11-20T03:29:45.394Z,1017.84
2018-11-20T03:30:45.361Z,1017.88
2018-11-20T03:31:45.326Z,1017.86
2018-11-20T03:32:45.294Z,1017.80
2018-11-20T03:33:45.262Z,1017.92
2018-11-20T03:34:45.228Z,1017.83
2018-11-20T03:35:45.200Z,1017.88
2018-11-20T03:36:45.168Z,1017.81
2018-11-20T03:37:45.134Z,1017.70
2018-11-20T03:38:45.101Z,1017.78
2018-11-20T03:39:45.068Z,1017.72
2018-11-20T03:40:45.037Z,1017.74
2018-11-20T03:41:45.008Z,1017.71
2018-11-20T03:42:44.972Z,1017.70
2018-11-20T03:43:44.941Z,1017.66
2018-11-20T03:44:44.908Z,1017.70
2018-11-20T03:45:44.878Z,1017.66
2018-11-20T03:46:44.843Z,1017.70
2018-11-20T03:47:44.871Z,1017.71
2018-11-20T03:48:44.780Z,1017.63
2018-11-20T03:49:44.747Z,1017.69
2018-11-20T03:50:44.715Z,1017.62
2018-11-20T03:51:44.682Z,1017.64
2018-11-20T03:52:44.654Z,1017.64
2018-11-20T03:53:44.618Z,1017.48
2018-11-20T03:54:44.585Z,1017.61
2018-11-20T03:55:44.554Z,1017.60
2018-11-20T03:56:44.521Z,1017.43
2018-11-20T03:57:44.492Z,1017.46
2018-11-20T03:58:44.457Z,1017.49
2018-11-20T03:59:44.428Z,1017.49
2018-11-20T04:00:44.394Z,1017.48
2018-11-20T04:01:44.360Z,1017.52
2018-11-20T04:02:44.327Z,1017.50
2018-11-20T04:03:44.296Z,1017.50
2018-11-20T04:04:44.266Z,1017.55
2018-11-20T04:05:44.234Z,1017.53
2018-11-20T04:06:44.199Z,1017.36
2018-11-20T04:07:44.167Z,1017.56
2018-11-20T04:08:44.135Z,1017.51
2018-11-20T04:09:44.103Z,1017.48
2018-11-20T04:10:44.070Z,1017.38
2018-11-20T04:11:44.038Z,1017.47
2018-11-20T04:12:44.007Z,1017.38
2018-11-20T04:13:43.974Z,1017.44
2018-11-20T04:14:43.941Z,1017.48
2018-11-20T04:15:43.910Z,1017.49
2018-11-20T04:16:43.881Z,1017.43
2018-11-20T04:17:43.848Z,1017.52
2018-11-20T04:18:43.810Z,1017.44
2018-11-20T04:19:43.779Z,1017.46
2018-11-20T04:20:43.751Z,1017.47
2018-11-20T04:21:43.716Z,1017.37
2018-11-20T04:22:43.683Z,1017.39
2018-11-20T04:23:43.650Z,1017.40
2018-11-20T04:24:43.619Z,1017.40
2018-11-20T04:25:43.588Z,1017.41
2018-11-20T04:26:43.554Z,1017.50
2018-11-20T04:27:43.523Z,1017.43
2018-11-20T04:28:43.490Z,1017.42
2018-11-20T04:29:43.459Z,1017.46
2018-11-20T04:30:43.426Z,1017.38
2018-11-20T04:31:43.394Z,1017.37
2018-11-20T04:32:43.365Z,1017.34
2018-11-20T04:33:43.333Z,1017.38
2018-11-20T04:34:43.297Z,1017.43
2018-11-20T04:35:43.266Z,1017.32
2018-11-20T04:36:43.232Z,1017.32
2018-11-20T04:37:43.201Z,1017.29
2018-11-20T04:38:43.168Z,1017.29
2018-11-20T04:39:43.135Z,1017.32
2018-11-20T04:40:43.104Z,1017.27
2018-11-20T04:41:43.072Z,1017.31
2018-11-20T04:42:43.041Z,1017.34
2018-11-20T04:43:43.008Z,1017.39
2018-11-20T04:44:42.975Z,1017.29
2018-11-20T04:45:42.947Z,1017.34
2018-11-20T04:46:42.916Z,1017.38
2018-11-20T04:47:42.880Z,1017.32
2018-11-20T04:48:42.847Z,1017.41
2018-11-20T04:49:42.857Z,1017.35
2018-11-20T04:50:42.787Z,1017.44
2018-11-20T04:51:42.750Z,1017.35
2018-11-20T04:52:42.718Z,1017.38
2018-11-20T04:53:42.685Z,1017.41
2018-11-20T04:54:42.653Z,1017.37
2018-11-20T04:55:42.621Z,1017.33
2018-11-20T04:56:42.589Z,1017.35
2018-11-20T04:57:42.653Z,1017.38
2018-11-20T04:58:42.523Z,1017.33
2018-11-20T04:59:42.492Z,1017.36
2018-11-20T05:00:42.462Z,1017.41
2018-11-20T05:01:42.428Z,1017.42
2018-11-20T05:02:42.396Z,1017.46
2018-11-20T05:03:42.370Z,1017.39
2018-11-20T05:04:42.331Z,1017.35
2018-11-20T05:05:42.298Z,1017.38
2018-11-20T05:06:42.398Z,1017.36
2018-11-20T05:07:42.238Z,1017.36
2018-11-20T05:08:42.205Z,1017.46
2018-11-20T05:09:42.174Z,1017.27
2018-11-20T05:10:42.137Z,1017.23
2018-11-20T05:11:42.104Z,1017.41
2018-11-20T05:12:42.073Z,1017.41
2018-11-20T05:13:42.047Z,1017.35
2018-11-20T05:14:42.007Z,1017.35
2018-11-20T05:15:41.975Z,1017.39
2018-11-20T05:16:41.943Z,1017.30
2018-11-20T05:17:41.914Z,1017.21
2018-11-20T05:18:41.885Z,1017.29
2018-11-20T05:19:41.850Z,1017.40
2018-11-20T05:20:41.815Z,1017.22
2018-11-20T05:21:41.782Z,1017.32
2018-11-20T05:22:41.748Z,1017.35
2018-11-20T05:23:41.867Z,1017.28
2018-11-20T05:24:41.685Z,1017.18
2018-11-20T05:25:41.653Z,1017.27
2018-11-20T05:26:41.620Z,1017.02
2018-11-20T05:27:41.588Z,1017.17
2018-11-20T05:28:41.556Z,1017.26
2018-11-20T05:29:41.525Z,1017.17
2018-11-20T05:30:41.491Z,1017.16
2018-11-20T05:31:41.462Z,1017.17
2018-11-20T05:32:41.426Z,1017.22
2018-11-20T05:33:41.399Z,1017.30
2018-11-20T05:34:41.362Z,1017.15
2018-11-20T05:35:41.327Z,1017.28
2018-11-20T05:36:41.297Z,1017.34
2018-11-20T05:37:41.263Z,1017.40
2018-11-20T05:38:41.231Z,1017.38
2018-11-20T05:39:41.200Z,1017.37
2018-11-20T05:40:41.166Z,1017.32
2018-11-20T05:41:41.139Z,1017.47
2018-11-20T05:42:41.103Z,1017.48
2018-11-20T05:43:41.070Z,1017.39
2018-11-20T05:44:41.038Z,1017.51
2018-11-20T05:45:41.006Z,1017.16
2018-11-20T05:46:40.987Z,1017.38
2018-11-20T05:47:40.945Z,1017.37
2018-11-20T05:48:40.909Z,1017.51
2018-11-20T05:49:40.877Z,1017.36
2018-11-20T05:50:40.843Z,1017.31
2018-11-20T05:51:40.810Z,1017.50
2018-11-20T05:52:40.780Z,1017.40
2018-11-20T05:53:40.753Z,1017.43
2018-11-20T05:54:40.714Z,1017.36
2018-11-20T05:55:40.682Z,1017.64
2018-11-20T05:56:40.652Z,1017.40
2018-11-20T05:57:40.617Z,1017.54
2018-11-20T05:58:40.637Z,1017.49
2018-11-20T05:59:40.551Z,1017.43
2018-11-20T06:00:40.521Z,1017.47
2018-11-20T06:01:40.493Z,1017.55
2018-11-20T06:02:40.454Z,1017.59
2018-11-20T06:03:40.426Z,1017.58
2018-11-20T06:04:40.390Z,1017.62
2018-11-20T06:05:40.358Z,1017.63
2018-11-20T06:06:40.326Z,1017.58
2018-11-20T06:07:40.293Z,1017.73
2018-11-20T06:08:40.268Z,1017.56
2018-11-20T06:09:40.228Z,1017.68
2018-11-20T06:10:40.195Z,1017.60
2018-11-20T06:11:40.163Z,1017.64
2018-11-20T06:12:40.163Z,1017.62
2018-11-20T06:13:40.098Z,1017.65
2018-11-20T06:14:40.066Z,1017.70
2018-11-20T06:15:40.037Z,1017.61
2018-11-20T06:16:40.002Z,1017.72
2018-11-20T06:17:39.969Z,1017.65
2018-11-20T06:18:39.977Z,1017.65
2018-11-20T06:19:39.903Z,1017.70
2018-11-20T06:20:39.872Z,1017.70
2018-11-20T06:21:39.841Z,1017.57
2018-11-20T06:22:39.806Z,1017.75
2018-11-20T06:23:39.775Z,1017.71
2018-11-20T06:24:39.745Z,1017.71
2018-11-20T06:25:39.713Z,1017.71
2018-11-20T06:26:39.678Z,1017.64
2018-11-20T06:27:39.644Z,1017.62
2018-11-20T06:28:39.693Z,1017.73
2018-11-20T06:29:39.585Z,1017.81
2018-11-20T06:30:39.549Z,1017.78
2018-11-20T06:31:39.517Z,1017.83
2018-11-20T06:32:39.483Z,1017.87
2018-11-20T06:33:39.451Z,1017.86
2018-11-20T06:34:39.432Z,1017.86
2018-11-20T06:35:39.386Z,1017.92
2018-11-20T06:36:39.353Z,1017.96
2018-11-20T06:37:39.321Z,1017.88
2018-11-20T06:38:39.286Z,1017.93
2018-11-20T06:39:39.255Z,1017.95
2018-11-20T06:40:39.224Z,1017.97
2018-11-20T06:41:39.192Z,1017.93
2018-11-20T06:42:39.159Z,1017.93
2018-11-20T06:43:39.125Z,1017.91
2018-11-20T06:44:39.093Z,1017.83
2018-11-20T06:45:39.065Z,1017.94
2018-11-20T06:46:39.233Z,1018.01
2018-11-20T06:47:38.997Z,1017.89
2018-11-20T06:48:38.966Z,1017.86
2018-11-20T06:49:38.932Z,1017.86
2018-11-20T06:50:38.899Z,1017.85
2018-11-20T06:51:38.868Z,1017.88
2018-11-20T06:52:38.840Z,1017.82
2018-11-20T06:53:38.985Z,1017.89
2018-11-20T06:54:38.767Z,1017.77
2018-11-20T06:55:38.737Z,1017.89
2018-11-20T06:56:38.704Z,1017.84
2018-11-20T06:57:38.675Z,1017.82
2018-11-20T06:58:38.639Z,1017.85
2018-11-20T06:59:38.607Z,1017.79
2018-11-20T07:00:38.575Z,1017.83
2018-11-20T07:01:38.726Z,1017.92
2018-11-20T07:02:38.509Z,1018.02
2018-11-20T07:03:38.476Z,1017.94
2018-11-20T07:04:38.445Z,1017.97
2018-11-20T07:05:38.411Z,1017.93
2018-11-20T07:06:38.401Z,1017.95
2018-11-20T07:07:38.612Z,1017.98
2018-11-20T07:08:38.372Z,1017.87
2018-11-20T07:09:38.315Z,1017.86
2018-11-20T07:10:38.256Z,1017.84
2018-11-20T07:11:38.215Z,1017.76
2018-11-20T07:12:38.189Z,1017.85
2018-11-20T07:13:38.152Z,1017.87
2018-11-20T07:14:38.119Z,1017.77
2018-11-20T07:15:38.225Z,1017.83
2018-11-20T07:16:38.054Z,1017.80
2018-11-20T07:17:38.029Z,1017.84
2018-11-20T07:18:37.988Z,1017.82
2018-11-20T07:19:37.962Z,1017.80
2018-11-20T07:20:37.927Z,1017.80
2018-11-20T07:21:37.891Z,1017.78
2018-11-20T07:22:38.008Z,1017.59
2018-11-20T07:23:37.826Z,1017.79
2018-11-20T07:24:37.844Z,1017.87
2018-11-20T07:25:37.768Z,1017.78
2018-11-20T07:26:37.729Z,1017.82
2018-11-20T07:27:37.708Z,1017.82
2018-11-20T07:28:37.666Z,1017.94
2018-11-20T07:29:37.708Z,1017.81
2018-11-20T07:30:37.729Z,1017.85
2018-11-20T07:31:37.636Z,1017.83
2018-11-20T07:32:37.534Z,1017.67
2018-11-20T07:33:37.502Z,1017.82
2018-11-20T07:34:37.475Z,1017.79
2018-11-20T07:35:37.437Z,1017.88
2018-11-20T07:36:37.457Z,1017.86
2018-11-20T07:37:37.374Z,1017.82
2018-11-20T07:38:37.339Z,1017.84
2018-11-20T07:39:37.310Z,1017.84
2018-11-20T07:40:37.277Z,1017.74
2018-11-20T07:41:37.242Z,1017.84
2018-11-20T07:42:37.209Z,1017.82
2018-11-20T07:43:37.261Z,1017.88
2018-11-20T07:44:37.145Z,1017.82
2018-11-20T07:45:37.112Z,1017.77
2018-11-20T07:46:37.079Z,1017.78
2018-11-20T07:47:37.051Z,1017.80
2018-11-20T07:48:37.015Z,1017.87
2018-11-20T07:49:36.983Z,1017.73
2018-11-20T07:50:36.949Z,1017.76
2018-11-20T07:51:37.148Z,1017.78
2018-11-20T07:52:36.913Z,1017.74
2018-11-20T07:53:36.853Z,1017.68
2018-11-20T07:54:36.823Z,1017.78
2018-11-20T07:55:36.856Z,1017.78
2018-11-20T07:56:36.758Z,1017.77
2018-11-20T07:57:36.725Z,1017.66
2018-11-20T07:58:36.692Z,1017.68
2018-11-20T07:59:36.664Z,1017.65
2018-11-20T08:00:36.626Z,1017.69
2018-11-20T08:01:36.596Z,1017.62
2018-11-20T08:02:36.562Z,1017.66
2018-11-20T08:03:36.529Z,1017.68
2018-11-20T08:04:36.497Z,1017.60
2018-11-20T08:05:36.481Z,1017.51
2018-11-20T08:06:36.446Z,1017.47
2018-11-20T08:07:36.399Z,1017.43
2018-11-20T08:08:36.407Z,1017.51
2018-11-20T08:09:36.354Z,1017.47
2018-11-20T08:10:36.304Z,1017.40
2018-11-20T08:11:36.270Z,1017.42
2018-11-20T08:12:36.239Z,1017.49
2018-11-20T08:13:36.206Z,1017.42
2018-11-20T08:14:36.174Z,1017.47
2018-11-20T08:15:36.162Z,1017.45
2018-11-20T08:16:36.111Z,1017.55
2018-11-20T08:17:36.078Z,1017.47
2018-11-20T08:18:36.045Z,1017.52
2018-11-20T08:19:36.012Z,1017.44
2018-11-20T08:20:35.980Z,1017.44
2018-11-20T08:21:35.948Z,1017.51
2018-11-20T08:22:35.918Z,1017.49
2018-11-20T08:23:35.884Z,1017.41
2018-11-20T08:24:35.854Z,1017.27
2018-11-20T08:25:35.841Z,1017.43
2018-11-20T08:26:35.830Z,1017.46
2018-11-20T08:27:35.756Z,1017.42
2018-11-20T08:28:35.723Z,1017.54
2018-11-20T08:29:35.690Z,1017.44
2018-11-20T08:30:35.659Z,1017.47
2018-11-20T08:31:35.626Z,1017.35
2018-11-20T08:32:35.600Z,1017.43
2018-11-20T08:33:35.620Z,1017.44
2018-11-20T08:34:35.530Z,1017.40
2018-11-20T08:35:35.497Z,1017.44
2018-11-20T08:36:35.466Z,1017.45
2018-11-20T08:37:35.434Z,1017.40
2018-11-20T08:38:35.401Z,1017.37
2018-11-20T08:39:35.369Z,1017.46
2018-11-20T08:40:35.337Z,1017.44
2018-11-20T08:41:35.305Z,1017.41
2018-11-20T08:42:35.284Z,1017.36
2018-11-20T08:43:35.246Z,1017.20
2018-11-20T08:44:35.213Z,1017.35
2018-11-20T08:45:35.177Z,1017.32
2018-11-20T08:46:35.143Z,1017.42
2018-11-20T08:47:35.159Z,1017.27
2018-11-20T08:48:35.084Z,1017.19
2018-11-20T08:49:35.048Z,1017.11
2018-11-20T08:50:35.015Z,1017.14
2018-11-20T08:51:34.994Z,1017.12
2018-11-20T08:52:34.956Z,1017.08
2018-11-20T08:53:34.933Z,1017.12
2018-11-20T08:54:34.886Z,1017.17
2018-11-20T08:55:34.857Z,1017.07
2018-11-20T08:56:34.823Z,1017.11
2018-11-20T08:57:34.798Z,1017.12
2018-11-20T08:58:34.758Z,1017.01
2018-11-20T08:59:34.726Z,1017.05
2018-11-20T09:00:34.697Z,1017.08
2018-11-20T09:01:34.662Z,1017.07
2018-11-20T09:02:34.676Z,1017.09
2018-11-20T09:03:34.598Z,1017.10
2018-11-20T09:04:34.566Z,1017.06
2018-11-20T09:05:34.538Z,1017.02
2018-11-20T09:06:34.502Z,1017.03
2018-11-20T09:07:34.473Z,1016.98
2018-11-20T09:08:34.448Z,1016.97
2018-11-20T09:09:34.406Z,1016.91
2018-11-20T09:10:34.416Z,1016.90
2018-11-20T09:11:34.342Z,1016.84
2018-11-20T09:12:34.310Z,1016.80
2018-11-20T09:13:34.281Z,1016.96
2018-11-20T09:14:34.246Z,1016.94
2018-11-20T09:15:34.226Z,1016.91
2018-11-20T09:16:34.182Z,1016.93
2018-11-20T09:17:34.153Z,1016.85
2018-11-20T09:18:34.118Z,1016.98
2018-11-20T09:19:34.087Z,1017.00
2018-11-20T09:20:34.054Z,1016.91
2018-11-20T09:21:34.023Z,1016.89
2018-11-20T09:22:33.990Z,1016.90
2018-11-20T09:23:34.004Z,1016.90
2018-11-20T09:24:33.926Z,1016.81
2018-11-20T09:25:33.951Z,1016.80
2018-11-20T09:26:33.864Z,1016.85
2018-11-20T09:27:33.830Z,1016.85
2018-11-20T09:28:33.801Z,1016.85
2018-11-20T09:29:33.767Z,1016.80
2018-11-20T09:30:33.736Z,1016.76
2018-11-20T09:31:33.703Z,1016.84
2018-11-20T09:32:33.671Z,1016.81
2018-11-20T09:33:33.641Z,1016.71
2018-11-20T09:34:33.751Z,1016.83
2018-11-20T09:35:33.696Z,1016.83
2018-11-20T09:36:33.544Z,1016.75
2018-11-20T09:37:33.516Z,1016.78
2018-11-20T09:38:33.479Z,1016.78
2018-11-20T09:39:33.454Z,1016.75
2018-11-20T09:40:33.416Z,1016.80
2018-11-20T09:41:33.382Z,1016.74
2018-11-20T09:42:33.352Z,1016.84
2018-11-20T09:43:33.319Z,1016.75
2018-11-20T09:44:33.493Z,1016.73
2018-11-20T09:45:33.263Z,1016.76
2018-11-20T09:46:33.282Z,1016.60
2018-11-20T09:47:33.192Z,1016.73
2018-11-20T09:48:33.161Z,1016.66
2018-11-20T09:49:33.129Z,1016.60
2018-11-20T09:50:33.097Z,1016.82
2018-11-20T09:51:33.065Z,1016.62
2018-11-20T09:52:33.089Z,1016.60
2018-11-20T09:53:33.003Z,1016.65
2018-11-20T09:54:32.975Z,1016.62
2018-11-20T09:55:32.936Z,1016.63
2018-11-20T09:56:32.906Z,1016.62
2018-11-20T09:57:32.873Z,1016.62
2018-11-20T09:58:32.841Z,1016.58
2018-11-20T09:59:32.827Z,1016.57
2018-11-20T10:00:32.778Z,1016.57
2018-11-20T10:01:32.746Z,1016.60
2018-11-20T10:02:32.734Z,1016.47
2018-11-20T10:03:32.720Z,1016.54
2018-11-20T10:04:32.655Z,1016.56
2018-11-20T10:05:32.632Z,1016.54
2018-11-20T10:06:32.586Z,1016.58
2018-11-20T10:07:32.555Z,1016.56
2018-11-20T10:08:32.523Z,1016.55
2018-11-20T10:09:32.491Z,1016.54
2018-11-20T10:10:32.467Z,1016.59
2018-11-20T10:11:32.426Z,1016.57
2018-11-20T10:12:32.398Z,1016.54
2018-11-20T10:13:32.363Z,1016.58
2018-11-20T10:14:32.660Z,1016.44
2018-11-20T10:15:32.500Z,1016.45
2018-11-20T10:16:32.270Z,1016.43
2018-11-20T10:17:32.235Z,1016.41
2018-11-20T10:18:32.202Z,1016.43
2018-11-20T10:19:32.174Z,1016.43
2018-11-20T10:20:32.138Z,1016.33
2018-11-20T10:21:32.191Z,1016.43
2018-11-20T10:22:32.081Z,1016.46
2018-11-20T10:23:32.059Z,1016.40
2018-11-20T10:24:32.027Z,1016.36
2018-11-20T10:25:32.133Z,1016.33
2018-11-20T10:26:31.950Z,1016.28
2018-11-20T10:27:31.916Z,1016.32
2018-11-20T10:28:31.885Z,1016.32
2018-11-20T10:29:31.853Z,1016.35
2018-11-20T10:30:31.821Z,1016.35
2018-11-20T10:31:31.796Z,1016.36
2018-11-20T10:32:31.788Z,1016.24
2018-11-20T10:33:31.727Z,1016.27
2018-11-20T10:34:31.706Z,1016.23
2018-11-20T10:35:31.744Z,1016.25
2018-11-20T10:36:31.634Z,1016.22
2018-11-20T10:37:31.599Z,1016.21
2018-11-20T10:38:31.887Z,1016.19
2018-11-20T10:39:31.535Z,1016.13
2018-11-20T10:40:31.645Z,1016.22
2018-11-20T10:41:31.476Z,1016.13
2018-11-20T10:42:31.439Z,1016.18
2018-11-20T10:43:31.410Z,1016.12
2018-11-20T10:44:31.376Z,1016.12
2018-11-20T10:45:31.401Z,1016.17
2018-11-20T10:46:31.324Z,1016.17
2018-11-20T10:47:31.289Z,1016.16
2018-11-20T10:48:31.249Z,1016.08
2018-11-20T10:49:31.218Z,1016.05
2018-11-20T10:50:31.185Z,1016.05
2018-11-20T10:51:31.153Z,1016.04
2018-11-20T10:52:31.214Z,1016.08
2018-11-20T10:53:31.091Z,1016.07
2018-11-20T10:54:31.062Z,1016.02
2018-11-20T10:55:31.026Z,1016.07
2018-11-20T10:56:30.995Z,1016.01
2018-11-20T10:57:30.973Z,1016.00
2018-11-20T10:58:30.937Z,1016.00
2018-11-20T10:59:30.943Z,1015.98
2018-11-20T11:00:30.871Z,1015.95
2018-11-20T11:01:30.851Z,1016.05
2018-11-20T11:02:30.804Z,1015.90
2018-11-20T11:03:30.782Z,1015.96
2018-11-20T11:04:30.832Z,1016.02
2018-11-20T11:05:30.717Z,1016.05
2018-11-20T11:06:30.867Z,1015.94
2018-11-20T11:07:30.736Z,1015.96
2018-11-20T11:08:30.623Z,1015.97
2018-11-20T11:09:30.583Z,1015.94
2018-11-20T11:10:30.552Z,1015.88
2018-11-20T11:11:30.569Z,1015.78
2018-11-20T11:12:30.554Z,1015.92
2018-11-20T11:13:30.456Z,1015.91
2018-11-20T11:14:30.449Z,1015.94
2018-11-20T11:15:30.391Z,1015.83
2018-11-20T11:16:30.360Z,1015.75
2018-11-20T11:17:30.484Z,1015.63
2018-11-20T11:18:30.367Z,1015.76
2018-11-20T11:19:30.269Z,1015.71
2018-11-20T11:21:30.203Z,1015.74
2018-11-20T11:22:30.383Z,1015.60
2018-11-20T11:23:30.138Z,1015.57
2018-11-20T11:24:30.109Z,1015.68
2018-11-20T11:25:30.085Z,1015.70
2018-11-20T11:26:30.046Z,1015.64
2018-11-20T11:27:30.013Z,1015.57
2018-11-20T11:28:29.981Z,1015.58
2018-11-20T11:29:29.948Z,1015.51
2018-11-20T11:30:29.915Z,1015.53
2018-11-20T11:31:29.883Z,1015.48
2018-11-20T11:32:29.852Z,1015.44
2018-11-20T11:33:29.821Z,1015.45
2018-11-20T11:34:29.787Z,1015.30
2018-11-20T11:35:29.756Z,1015.38
2018-11-20T11:36:29.725Z,1015.50
2018-11-20T11:37:29.693Z,1015.47
2018-11-20T11:38:29.661Z,1015.43
2018-11-20T11:39:29.639Z,1015.45
2018-11-20T11:40:29.606Z,1015.47
2018-11-20T11:41:29.566Z,1015.52
2018-11-20T11:42:29.531Z,1015.37
2018-11-20T11:43:29.636Z,1015.33
2018-11-20T11:44:29.471Z,1015.45
2018-11-20T11:45:29.437Z,1015.40
2018-11-20T11:46:29.419Z,1015.49
2018-11-20T11:47:29.379Z,1015.38
2018-11-20T11:48:29.342Z,1015.31
2018-11-20T11:49:29.318Z,1015.37
2018-11-20T11:50:29.283Z,1015.36
2018-11-20T11:51:29.450Z,1015.23
2018-11-20T11:52:29.222Z,1015.26
2018-11-20T11:53:29.184Z,1015.36
2018-11-20T11:54:29.155Z,1015.41
2018-11-20T11:55:29.121Z,1015.40
2018-11-20T11:56:29.090Z,1015.40
2018-11-20T11:57:29.381Z,1015.35
2018-11-20T11:58:29.024Z,1015.35
2018-11-20T11:59:28.998Z,1015.40
2018-11-20T12:00:28.971Z,1015.43
2018-11-20T12:03:28.867Z,1015.34
2018-11-20T12:04:28.834Z,1015.39
2018-11-20T12:05:28.807Z,1015.36
2018-11-20T12:06:28.781Z,1015.45
2018-11-20T12:07:28.739Z,1015.38
2018-11-20T12:08:28.716Z,1015.28